createdAt,value
2019-01-04T00:04:37.898Z,83.77
2019-01-04T00:07:09.915Z,83.84
2019-01-04T00:09:41.891Z,84.08
2019-01-04T00:12:13.903Z,83.96
2019-01-04T00:14:45.893Z,84.03
2019-01-04T00:17:17.915Z,84.00
2019-01-04T00:19:49.949Z,84.13
2019-01-04T00:22:21.918Z,84.40
2019-01-04T00:24:53.927Z,84.63
2019-01-04T00:27:25.944Z,84.73
2019-01-04T00:29:57.982Z,84.81
2019-01-04T00:32:29.955Z,84.89
2019-01-04T00:35:01.944Z,84.96
2019-01-04T00:37:33.900Z,85.03
2019-01-04T00:40:06.767Z,85.14
2019-01-04T00:42:38.753Z,85.23
2019-01-04T00:45:10.772Z,85.23
2019-01-04T00:47:42.766Z,85.22
2019-01-04T00:50:14.761Z,85.08
2019-01-04T00:52:46.754Z,85.17
2019-01-04T00:55:57.739Z,85.03
2019-01-04T00:59:08.700Z,84.86
2019-01-04T01:02:19.590Z,84.76
2019-01-04T01:05:30.502Z,84.40
2019-01-04T01:08:41.408Z,84.03
2019-01-04T01:11:52.316Z,84.29
2019-01-04T01:15:03.226Z,84.45
2019-01-04T01:18:14.153Z,84.64
2019-01-04T01:21:12.332Z,84.59
2019-01-04T01:24:23.223Z,84.42
2019-01-04T01:27:29.496Z,84.59
2019-01-04T01:30:40.414Z,84.79
2019-01-04T01:33:51.284Z,84.85
2019-01-04T01:37:12.860Z,84.82
2019-01-04T01:40:23.773Z,84.69
2019-01-04T01:43:34.668Z,84.38
2019-01-04T01:46:45.575Z,84.42
2019-01-04T01:49:56.435Z,84.32
2019-01-04T01:52:32.598Z,84.06
2019-01-04T01:55:04.609Z,83.48
2019-01-04T01:57:36.617Z,83.64
2019-01-04T02:00:08.791Z,83.43
2019-01-04T02:02:40.803Z,83.33
2019-01-04T02:05:12.749Z,83.64
2019-01-04T02:07:44.760Z,83.81
2019-01-04T02:10:16.792Z,83.96
2019-01-04T02:12:48.821Z,84.14
2019-01-04T02:15:20.771Z,84.11
2019-01-04T02:17:52.818Z,84.27
2019-01-04T02:20:24.835Z,84.31
2019-01-04T02:22:56.813Z,84.37
2019-01-04T02:25:28.802Z,84.18
2019-01-04T02:28:00.836Z,84.33
2019-01-04T02:30:32.823Z,84.47
2019-01-04T02:33:04.832Z,84.21
2019-01-04T02:35:36.802Z,84.15
2019-01-04T02:38:08.806Z,83.85
2019-01-04T02:40:40.811Z,83.86
2019-01-04T02:43:12.782Z,83.80
2019-01-04T02:45:44.770Z,83.91
2019-01-04T02:48:16.739Z,84.09
2019-01-04T02:50:48.726Z,84.06
2019-01-04T02:53:20.702Z,84.06
2019-01-04T02:55:52.681Z,84.05
2019-01-04T02:58:24.639Z,83.93
2019-01-04T03:00:56.623Z,84.01
2019-01-04T03:03:28.587Z,84.25
2019-01-04T03:06:00.579Z,84.17
2019-01-04T03:08:32.535Z,84.14
2019-01-04T03:11:04.511Z,83.73
2019-01-04T03:13:36.503Z,83.99
2019-01-04T03:16:08.494Z,84.08
2019-01-04T03:18:40.459Z,84.15
2019-01-04T03:21:12.462Z,83.89
2019-01-04T03:23:44.419Z,83.87
2019-01-04T03:26:16.412Z,84.13
2019-01-04T03:28:48.403Z,84.30
2019-01-04T03:31:20.386Z,84.33
2019-01-04T03:33:52.371Z,84.19
2019-01-04T03:36:24.367Z,84.15
2019-01-04T03:38:56.356Z,84.18
2019-01-04T03:41:28.349Z,84.21
2019-01-04T03:44:00.296Z,84.08
2019-01-04T03:46:32.282Z,84.00
2019-01-04T03:49:04.246Z,84.03
2019-01-04T03:51:36.234Z,84.07
2019-01-04T03:54:08.201Z,83.95
2019-01-04T03:56:40.187Z,84.10
2019-01-04T03:59:12.180Z,84.09
2019-01-04T04:01:44.153Z,83.89
2019-01-04T04:04:16.149Z,83.85
2019-01-04T04:06:48.135Z,83.99
2019-01-04T04:09:20.144Z,83.86
2019-01-04T04:11:52.108Z,83.82
2019-01-04T04:14:24.930Z,83.76
2019-01-04T04:16:56.918Z,83.71
2019-01-04T04:19:28.894Z,83.90
2019-01-04T04:22:00.882Z,84.04
2019-01-04T04:24:32.869Z,84.19
2019-01-04T04:27:04.845Z,84.08
2019-01-04T04:29:36.835Z,84.06
2019-01-04T04:32:08.803Z,83.93
2019-01-04T04:34:40.787Z,84.00
2019-01-04T04:37:12.784Z,83.92
2019-01-04T04:39:44.765Z,83.80
2019-01-04T04:42:16.725Z,84.06
2019-01-04T04:44:48.724Z,83.66
2019-01-04T04:47:20.679Z,83.11
2019-01-04T04:49:52.657Z,83.65
2019-01-04T04:52:24.619Z,84.00
2019-01-04T04:54:56.676Z,84.22
2019-01-04T04:57:28.636Z,83.79
2019-01-04T05:00:00.632Z,83.58
2019-01-04T05:02:32.609Z,83.67
2019-01-04T05:05:04.721Z,83.93
2019-01-04T05:07:36.663Z,83.91
2019-01-04T05:10:08.655Z,83.96
2019-01-04T05:12:40.609Z,83.88
2019-01-04T05:15:12.613Z,83.79
2019-01-04T05:17:44.620Z,83.68
2019-01-04T05:20:16.620Z,83.67
2019-01-04T05:22:48.680Z,83.51
2019-01-04T05:25:20.664Z,83.57
2019-01-04T05:27:52.635Z,83.67
2019-01-04T05:30:24.621Z,83.67
2019-01-04T05:32:56.583Z,83.28
2019-01-04T05:35:28.560Z,83.40
2019-01-04T05:38:00.552Z,83.62
2019-01-04T05:40:32.552Z,82.78
2019-01-04T05:43:04.519Z,82.78
2019-01-04T05:45:36.499Z,83.08
2019-01-04T05:48:08.480Z,82.60
2019-01-04T05:50:40.437Z,81.90
2019-01-04T05:53:12.422Z,82.35
2019-01-04T05:55:44.370Z,82.66
2019-01-04T05:58:16.353Z,82.89
2019-01-04T06:00:48.327Z,82.96
2019-01-04T06:03:20.318Z,82.87
2019-01-04T06:05:52.273Z,83.12
2019-01-04T06:08:24.279Z,83.03
2019-01-04T06:10:56.244Z,82.84
2019-01-04T06:13:28.230Z,82.83
2019-01-04T06:16:00.195Z,82.85
2019-01-04T06:18:32.195Z,82.69
2019-01-04T06:21:04.243Z,82.42
2019-01-04T06:23:36.250Z,82.53
2019-01-04T06:26:08.204Z,82.71
2019-01-04T06:28:40.242Z,82.80
2019-01-04T06:31:12.210Z,83.09
2019-01-04T06:33:44.243Z,82.94
2019-01-04T06:36:16.220Z,82.94
2019-01-04T06:38:48.208Z,83.10
2019-01-04T06:41:20.167Z,83.32
2019-01-04T06:43:52.209Z,83.17
2019-01-04T06:46:24.227Z,83.26
2019-01-04T06:48:56.212Z,83.27
2019-01-04T06:51:28.292Z,83.43
2019-01-04T06:54:00.342Z,83.73
2019-01-04T06:56:32.303Z,83.62
2019-01-04T06:59:04.346Z,83.66
2019-01-04T07:01:36.320Z,83.74
2019-01-04T07:04:08.353Z,83.94
2019-01-04T07:06:40.360Z,83.93
2019-01-04T07:09:12.391Z,83.75
2019-01-04T07:11:44.377Z,83.53
2019-01-04T07:14:16.359Z,83.22
2019-01-04T07:16:48.508Z,83.32
2019-01-04T07:19:20.507Z,83.50
2019-01-04T07:21:52.546Z,83.38
2019-01-04T07:24:24.534Z,83.41
2019-01-04T07:26:56.587Z,83.08
2019-01-04T07:29:28.571Z,83.25
2019-01-04T07:32:00.675Z,83.06
2019-01-04T07:34:32.667Z,83.02
2019-01-04T07:37:04.649Z,83.03
2019-01-04T07:39:36.763Z,83.03
2019-01-04T07:42:08.790Z,83.12
2019-01-04T07:44:40.780Z,82.51
2019-01-04T07:47:12.765Z,82.37
2019-01-04T07:49:44.775Z,81.45
2019-01-04T07:52:17.297Z,81.94
2019-01-04T07:54:49.400Z,81.73
2019-01-04T07:57:21.383Z,81.98
2019-01-04T07:59:53.385Z,82.54
2019-01-04T08:02:45.416Z,82.39
2019-01-04T08:05:21.767Z,82.37
2019-01-04T08:07:53.830Z,81.88
2019-01-04T08:10:25.840Z,82.09
2019-01-04T08:12:57.860Z,81.99
2019-01-04T08:15:29.888Z,82.09
2019-01-04T08:18:01.867Z,81.94
2019-01-04T08:20:33.876Z,81.87
2019-01-04T08:23:05.877Z,81.89
2019-01-04T08:25:37.860Z,80.94
2019-01-04T08:28:09.834Z,81.55
2019-01-04T08:30:41.796Z,81.34
2019-01-04T08:33:13.764Z,80.76
2019-01-04T08:35:45.777Z,80.20
2019-01-04T08:38:17.720Z,81.19
2019-01-04T08:40:49.724Z,81.45
2019-01-04T08:43:21.734Z,81.47
2019-01-04T08:45:53.717Z,81.75
2019-01-04T08:48:25.679Z,81.76
2019-01-04T08:50:57.677Z,81.62
2019-01-04T08:53:54.787Z,81.91
2019-01-04T08:56:28.786Z,82.02
2019-01-04T08:59:00.751Z,81.91
2019-01-04T09:01:32.748Z,81.58
2019-01-04T09:04:04.714Z,81.25
2019-01-04T09:06:36.749Z,81.29
2019-01-04T09:09:08.732Z,81.29
2019-01-04T09:11:40.716Z,81.29
2019-01-04T09:14:12.706Z,80.82
2019-01-04T09:16:44.755Z,80.72
2019-01-04T09:19:16.747Z,80.90
2019-01-04T09:21:48.746Z,81.04
2019-01-04T09:24:20.735Z,80.90
2019-01-04T09:26:52.879Z,81.10
2019-01-04T09:29:24.845Z,80.84
2019-01-04T09:31:56.855Z,80.75
2019-01-04T09:34:28.866Z,80.45
2019-01-04T09:37:00.872Z,80.52
2019-01-04T09:39:32.886Z,79.96
2019-01-04T09:42:10.388Z,79.97
2019-01-04T09:44:43.418Z,80.21
2019-01-04T09:47:15.438Z,79.62
2019-01-04T09:49:47.442Z,79.59
2019-01-04T09:52:19.470Z,79.71
2019-01-04T09:54:51.575Z,79.31
2019-01-04T09:57:23.834Z,79.22
2019-01-04T09:59:55.832Z,79.47
2019-01-04T10:02:27.869Z,78.51
2019-01-04T10:04:59.872Z,78.16
2019-01-04T10:07:31.885Z,78.44
2019-01-04T10:10:05.199Z,78.84
2019-01-04T10:12:38.560Z,78.94
2019-01-04T10:15:15.327Z,78.35
2019-01-04T10:17:47.361Z,78.85
2019-01-04T10:20:19.417Z,78.92
2019-01-04T10:22:51.460Z,79.04
2019-01-04T10:25:23.695Z,79.07
2019-01-04T10:27:55.862Z,79.39
2019-01-04T10:30:27.907Z,79.58
2019-01-04T10:32:59.922Z,79.30
2019-01-04T10:35:32.036Z,79.17
2019-01-04T10:38:04.128Z,79.24
2019-01-04T10:40:36.144Z,78.82
2019-01-04T10:43:08.151Z,79.20
2019-01-04T10:45:40.384Z,79.15
2019-01-04T10:48:12.408Z,78.72
2019-01-04T10:50:44.412Z,78.45
2019-01-04T10:53:16.729Z,78.40
2019-01-04T10:55:48.750Z,78.85
2019-01-04T10:58:20.730Z,78.55
2019-01-04T11:00:52.779Z,79.03
2019-01-04T11:03:24.753Z,79.13
2019-01-04T11:05:56.756Z,79.19
2019-01-04T11:08:28.724Z,79.28
2019-01-04T11:11:00.718Z,78.61
2019-01-04T11:13:32.801Z,78.72
2019-01-04T11:16:04.818Z,79.16
2019-01-04T11:18:36.885Z,78.04
2019-01-04T11:21:11.273Z,78.55
2019-01-04T11:24:31.059Z,79.43
2019-01-04T11:27:12.788Z,79.44
2019-01-04T11:30:35.816Z,79.55
2019-01-04T11:33:20.662Z,80.00
2019-01-04T11:36:22.263Z,80.06
2019-01-04T11:39:34.589Z,80.09
2019-01-04T11:42:42.589Z,80.22
2019-01-04T11:45:49.329Z,80.11
2019-01-04T11:49:08.824Z,78.78
2019-01-04T11:52:30.972Z,79.26
2019-01-04T11:54:59.087Z,78.84
2019-01-04T11:57:31.053Z,78.78
2019-01-04T12:00:04.398Z,78.49
2019-01-04T12:02:36.473Z,78.03
2019-01-04T12:05:09.936Z,77.75
2019-01-04T12:07:41.959Z,77.58
2019-01-04T12:10:13.980Z,77.21
2019-01-04T12:12:46.010Z,77.16
2019-01-04T12:15:18.012Z,76.81
2019-01-04T12:17:50.060Z,76.14
2019-01-04T12:20:22.808Z,76.09
2019-01-04T12:22:54.845Z,75.50
2019-01-04T12:25:26.802Z,75.60
2019-01-04T12:27:58.805Z,75.91
2019-01-04T12:30:30.811Z,75.43
2019-01-04T12:33:03.315Z,75.34
2019-01-04T12:35:35.379Z,74.49
2019-01-04T12:38:07.357Z,75.19
2019-01-04T12:40:39.467Z,74.99
2019-01-04T12:43:11.468Z,75.68
2019-01-04T12:45:44.636Z,76.29
2019-01-04T12:48:16.671Z,76.41
2019-01-04T12:50:48.670Z,76.70
2019-01-04T12:53:20.693Z,76.77
2019-01-04T12:55:52.711Z,76.18
2019-01-04T12:58:24.733Z,75.92
2019-01-04T13:00:56.746Z,76.41
2019-01-04T13:03:28.765Z,76.60
2019-01-04T13:06:00.817Z,76.61
2019-01-04T13:08:32.831Z,76.41
2019-01-04T13:11:04.853Z,76.58
2019-01-04T13:13:37.670Z,76.67
2019-01-04T13:16:09.664Z,77.12
2019-01-04T13:18:41.714Z,77.34
2019-01-04T13:21:13.958Z,77.05
2019-01-04T13:23:47.273Z,77.19
2019-01-04T13:26:29.946Z,77.07
2019-01-04T13:29:01.948Z,77.37
2019-01-04T13:31:33.979Z,77.75
2019-01-04T13:34:05.991Z,77.35
2019-01-04T13:36:38.041Z,77.02
2019-01-04T13:39:13.781Z,76.15
2019-01-04T13:41:45.891Z,76.11
2019-01-04T13:44:17.900Z,76.62
2019-01-04T13:46:49.931Z,76.73
2019-01-04T13:49:21.910Z,77.19
2019-01-04T13:51:53.921Z,77.26
2019-01-04T13:54:27.459Z,76.79
2019-01-04T13:56:59.540Z,76.89
2019-01-04T13:59:31.612Z,76.23
2019-01-04T14:02:03.644Z,76.53
2019-01-04T14:04:35.640Z,76.88
2019-01-04T14:07:08.127Z,76.20
2019-01-04T14:09:40.163Z,75.76
2019-01-04T14:12:12.215Z,76.55
2019-01-04T14:14:44.200Z,76.46
2019-01-04T14:17:17.405Z,76.50
2019-01-04T14:19:50.207Z,76.42
2019-01-04T14:22:22.306Z,76.60
2019-01-04T14:24:54.303Z,76.65
2019-01-04T14:27:26.350Z,76.73
2019-01-04T14:29:58.391Z,76.81
2019-01-04T14:32:30.433Z,76.52
2019-01-04T14:35:02.453Z,76.00
2019-01-04T14:37:34.449Z,75.69
2019-01-04T14:40:07.915Z,75.89
2019-01-04T14:42:39.954Z,76.37
2019-01-04T14:45:12.040Z,76.54
2019-01-04T14:47:44.070Z,76.46
2019-01-04T14:50:16.152Z,76.66
2019-01-04T14:52:48.149Z,76.76
2019-01-04T14:55:20.246Z,76.65
2019-01-04T14:57:52.273Z,76.64
2019-01-04T15:00:24.300Z,75.54
2019-01-04T15:02:56.288Z,75.53
2019-01-04T15:05:28.321Z,75.96
2019-01-04T15:08:00.333Z,75.93
2019-01-04T15:10:32.368Z,75.43
2019-01-04T15:13:08.492Z,76.06
2019-01-04T15:15:40.501Z,75.84
2019-01-04T15:18:12.628Z,76.14
2019-01-04T15:20:44.618Z,76.35
2019-01-04T15:23:16.653Z,76.97
2019-01-04T15:25:48.703Z,76.72
2019-01-04T15:28:20.722Z,76.01
2019-01-04T15:30:53.865Z,76.29
2019-01-04T15:33:25.898Z,76.62
2019-01-04T15:35:57.983Z,76.37
2019-01-04T15:38:36.057Z,77.05
2019-01-04T15:41:04.025Z,77.09
2019-01-04T15:43:36.312Z,77.25
2019-01-04T15:46:08.355Z,77.42
2019-01-04T15:48:40.392Z,77.37
2019-01-04T15:51:12.396Z,76.93
2019-01-04T15:53:44.426Z,77.13
2019-01-04T15:56:16.456Z,77.22
2019-01-04T15:58:51.115Z,76.72
2019-01-04T16:01:23.176Z,77.05
2019-01-04T16:03:55.178Z,77.30
2019-01-04T16:06:27.217Z,77.28
2019-01-04T16:08:59.214Z,77.20
2019-01-04T16:11:31.264Z,77.14
2019-01-04T16:14:03.253Z,77.48
2019-01-04T16:16:35.334Z,77.63
2019-01-04T16:19:07.422Z,77.49
2019-01-04T16:21:39.414Z,77.56
2019-01-04T16:24:11.432Z,77.50
2019-01-04T16:26:43.435Z,77.53
2019-01-04T16:29:15.501Z,78.04
2019-01-04T16:31:47.536Z,77.66
2019-01-04T16:34:19.593Z,77.60
2019-01-04T16:36:51.669Z,77.89
2019-01-04T16:39:23.716Z,77.69
2019-01-04T16:41:55.732Z,77.76
2019-01-04T16:44:31.303Z,77.42
2019-01-04T16:47:03.335Z,77.51
2019-01-04T16:49:54.914Z,77.78
2019-01-04T16:52:28.685Z,78.15
2019-01-04T16:55:00.755Z,78.12
2019-01-04T16:57:32.800Z,77.65
2019-01-04T17:00:46.179Z,77.75
2019-01-04T17:03:18.217Z,78.12
2019-01-04T17:08:41.880Z,78.31
2019-01-04T17:11:13.934Z,77.99
2019-01-04T17:16:37.551Z,78.24
2019-01-04T17:19:09.638Z,78.49
2019-01-04T17:21:41.664Z,78.55
2019-01-04T17:24:13.679Z,78.50
2019-01-04T17:26:45.695Z,78.45
2019-01-04T17:29:17.701Z,78.67
2019-01-04T17:31:49.731Z,78.58
2019-01-04T17:34:21.774Z,78.32
2019-01-04T17:36:53.853Z,78.35
2019-01-04T17:39:25.855Z,78.75
2019-01-04T17:41:57.894Z,78.69
2019-01-04T17:44:29.963Z,78.21
2019-01-04T17:47:18.846Z,77.76
2019-01-04T17:49:50.867Z,77.50
2019-01-04T17:52:22.914Z,77.65
2019-01-04T17:54:54.910Z,78.28
2019-01-04T17:57:26.948Z,78.51
2019-01-04T17:59:58.978Z,78.78
2019-01-04T18:02:31.004Z,78.82
2019-01-04T18:05:03.084Z,78.68
2019-01-04T18:07:35.126Z,78.60
2019-01-04T18:10:07.806Z,78.77
2019-01-04T18:12:39.875Z,78.74
2019-01-04T18:15:11.902Z,78.69
2019-01-04T18:17:44.529Z,78.63
2019-01-04T18:20:16.664Z,78.66
2019-01-04T18:22:48.719Z,77.87
2019-01-04T18:25:20.822Z,78.08
2019-01-04T18:27:52.869Z,78.14
2019-01-04T18:30:24.939Z,77.99
2019-01-04T18:32:56.995Z,77.96
2019-01-04T18:35:29.026Z,78.38
2019-01-04T18:38:01.079Z,78.87
2019-01-04T18:43:24.806Z,78.63
2019-01-04T18:45:56.872Z,79.35
2019-01-04T18:48:28.947Z,80.11
2019-01-04T18:51:01.001Z,80.42
2019-01-04T18:53:33.099Z,80.73
2019-01-04T18:56:05.148Z,80.30
2019-01-04T18:58:37.212Z,80.67
2019-01-04T19:01:13.679Z,81.05
2019-01-04T19:03:43.212Z,81.69
2019-01-04T19:06:15.253Z,81.89
2019-01-04T19:08:47.361Z,82.01
2019-01-04T19:11:19.413Z,82.43
2019-01-04T19:13:51.457Z,82.84
2019-01-04T19:16:23.508Z,83.24
2019-01-04T19:18:55.548Z,83.50
2019-01-04T19:21:28.684Z,83.67
2019-01-04T19:24:00.697Z,83.64
2019-01-04T19:26:32.762Z,83.78
2019-01-04T19:29:04.804Z,83.69
2019-01-04T19:31:36.883Z,83.90
2019-01-04T19:34:08.998Z,83.80
2019-01-04T19:36:41.057Z,83.11
2019-01-04T19:39:13.117Z,83.70
2019-01-04T19:41:45.165Z,83.54
2019-01-04T19:44:17.229Z,83.39
2019-01-04T19:46:49.282Z,83.56
2019-01-04T19:49:21.301Z,83.41
2019-01-04T19:51:53.369Z,83.36
2019-01-04T19:54:25.404Z,83.19
2019-01-04T19:56:58.506Z,83.42
2019-01-04T19:59:32.960Z,83.49
2019-01-04T20:02:05.052Z,83.24
2019-01-04T20:04:37.095Z,83.55
2019-01-04T20:08:26.558Z,83.77
2019-01-04T20:12:06.115Z,83.93
2019-01-04T20:15:44.969Z,83.78
2019-01-04T20:18:52.352Z,83.91
2019-01-04T20:21:42.679Z,83.40
2019-01-04T20:24:34.288Z,83.74
2019-01-04T20:27:23.651Z,83.62
2019-01-04T20:30:14.197Z,83.96
2019-01-04T20:33:14.994Z,84.47
2019-01-04T20:36:05.496Z,84.15
2019-01-04T20:38:56.332Z,84.39
2019-01-04T20:41:46.921Z,84.58
2019-01-04T20:44:37.555Z,84.71
2019-01-04T20:47:33.266Z,85.07
2019-01-04T20:50:30.784Z,85.50
2019-01-04T20:53:21.135Z,85.81
2019-01-04T20:56:11.692Z,86.15
2019-01-04T20:59:05.726Z,86.50
2019-01-04T21:02:00.361Z,86.48
2019-01-04T21:04:50.836Z,86.60
2019-01-04T21:07:52.078Z,86.49
2019-01-04T21:10:53.000Z,86.63
2019-01-04T21:13:44.312Z,86.84
2019-01-04T21:16:34.340Z,86.81
2019-01-04T21:19:19.795Z,87.15
2019-01-04T21:22:17.642Z,87.20
2019-01-04T21:25:27.680Z,87.11
2019-01-04T21:28:17.890Z,87.01
2019-01-04T21:31:12.578Z,86.55
2019-01-04T21:34:03.109Z,86.58
2019-01-04T21:37:00.771Z,87.03
2019-01-04T21:39:52.488Z,86.99
2019-01-04T21:42:47.090Z,87.17
2019-01-04T21:45:56.945Z,86.89
2019-01-04T21:49:03.716Z,86.90
2019-01-04T21:51:55.354Z,86.95
2019-01-04T21:54:50.017Z,86.39
2019-01-04T21:57:46.822Z,86.23
2019-01-04T22:00:41.434Z,86.29
2019-01-04T22:03:48.467Z,86.75
2019-01-04T22:06:38.687Z,86.80
2019-01-04T22:09:48.556Z,86.80
2019-01-04T22:12:39.033Z,87.14
2019-01-04T22:15:34.601Z,87.21
2019-01-04T22:18:32.474Z,86.90
2019-01-04T22:21:22.632Z,86.93
2019-01-04T22:24:09.226Z,86.79
2019-01-04T22:27:09.931Z,86.92
2019-01-04T22:30:10.509Z,86.85
2019-01-04T22:33:00.896Z,86.73
2019-01-04T22:35:51.595Z,86.64
2019-01-04T22:39:01.641Z,86.81
2019-01-04T22:42:05.200Z,86.48
2019-01-04T22:45:08.989Z,86.95
2019-01-04T22:48:09.680Z,87.18
2019-01-04T22:51:07.162Z,87.08
2019-01-04T22:53:57.322Z,86.87
2019-01-04T22:56:44.319Z,86.92
2019-01-04T22:59:34.639Z,87.15
2019-01-04T23:02:41.549Z,86.84
2019-01-04T23:05:32.226Z,86.39
2019-01-04T23:08:20.399Z,86.75
2019-01-04T23:11:10.825Z,86.97
2019-01-04T23:14:08.255Z,87.13
2019-01-04T23:17:18.260Z,87.29
2019-01-04T23:20:19.356Z,87.23
2019-01-04T23:23:09.698Z,87.43
2019-01-04T23:25:59.983Z,87.22
2019-01-04T23:28:50.517Z,87.62
2019-01-04T23:31:44.640Z,87.70
2019-01-04T23:34:36.252Z,87.79
2019-01-04T23:37:43.248Z,87.89
2019-01-04T23:40:53.186Z,87.71
2019-01-04T23:43:43.476Z,87.74
2019-01-04T23:46:40.886Z,87.89
2019-01-04T23:49:35.474Z,87.80
2019-01-04T23:52:25.769Z,87.89
2019-01-04T23:55:16.415Z,87.87
2019-01-04T23:58:07.116Z,87.76
